METAR Data
IDs: Format: Raw Decoded Include TAF

Data at: 0217 UTC 25 Feb 2021

SACO 250200Z 34004KT CAVOK 18/17 Q1016 NOSIG